Dixon, Iowa
Current Conditions -  °F | °C
As of 3:52 AM on Friday 19 Dec 2014 (Local Time) from KDVN Reporting Station
Clear Clear  
Wind Chill:   Ceiling: Unl
Heat Index: 14°   Visibility: 8mi
Dew Point: 10°   Wind: 5mph
Humidity: 84%   Direction: 360°N
Pressure: 30.3"   Gusts: NA
Location:  41.74°N, 90.78°W
Report Text: KDVN 190952Z AUTO 36004KT 8SM CLR M10/M12 A3030 RMK AO2 SLP274 T11001122
Loading
Personal Weather Stations






























Interactive Weather Map New forecast layout! Learn more

10-Day Weather Forecast

Advertisements
Track Severe Weather on mobile